sensor_id;sensor_type;location;lat;lon;timestamp;pressure;altitude;pressure_sealevel;temperature;humidity
31717;BME280;18301;51.076;17.046;2023-01-30T00:01:32;100210.91;;;0.71;69.79
31717;BME280;18301;51.076;17.046;2023-01-30T00:06:34;100200.59;;;0.63;69.95
31717;BME280;18301;51.076;17.046;2023-01-30T00:11:36;100196.53;;;0.76;69.36
31717;BME280;18301;51.076;17.046;2023-01-30T00:16:37;100179.03;;;0.71;69.92
31717;BME280;18301;51.076;17.046;2023-01-30T00:21:39;100173.56;;;0.75;70.04
31717;BME280;18301;51.076;17.046;2023-01-30T00:26:40;100178.03;;;0.75;70.19
31717;BME280;18301;51.076;17.046;2023-01-30T00:31:42;100152.03;;;0.59;70.21
31717;BME280;18301;51.076;17.046;2023-01-30T00:36:43;100151.69;;;0.68;69.40
31717;BME280;18301;51.076;17.046;2023-01-30T00:41:47;100136.84;;;0.63;70.10
31717;BME280;18301;51.076;17.046;2023-01-30T00:47:07;100124.28;;;0.43;70.41
31717;BME280;18301;51.076;17.046;2023-01-30T00:52:09;100103.41;;;0.09;71.29
31717;BME280;18301;51.076;17.046;2023-01-30T00:57:11;100107.53;;;0.17;71.51
31717;BME280;18301;51.076;17.046;2023-01-30T01:02:12;100088.25;;;-0.13;72.93
31717;BME280;18301;51.076;17.046;2023-01-30T01:07:14;100078.91;;;0.02;72.54
31717;BME280;18301;51.076;17.046;2023-01-30T01:12:15;100056.09;;;-0.04;72.86
31717;BME280;18301;51.076;17.046;2023-01-30T01:17:17;100059.16;;;-0.14;73.23
31717;BME280;18301;51.076;17.046;2023-01-30T01:22:18;100052.13;;;0.10;72.78
31717;BME280;18301;51.076;17.046;2023-01-30T01:27:19;100045.34;;;0.25;72.63
31717;BME280;18301;51.076;17.046;2023-01-30T01:32:22;100037.75;;;0.39;71.87
31717;BME280;18301;51.076;17.046;2023-01-30T01:37:23;100012.19;;;0.36;71.90
31717;BME280;18301;51.076;17.046;2023-01-30T01:42:28;100002.66;;;0.31;72.36
31717;BME280;18301;51.076;17.046;2023-01-30T01:47:32;100018.78;;;0.50;72.07
31717;BME280;18301;51.076;17.046;2023-01-30T01:52:35;100005.13;;;0.59;72.11
31717;BME280;18301;51.076;17.046;2023-01-30T01:57:40;99993.22;;;0.69;71.57
31717;BME280;18301;51.076;17.046;2023-01-30T02:02:48;99984.19;;;0.51;72.13
31717;BME280;18301;51.076;17.046;2023-01-30T02:07:59;99982.59;;;0.47;72.48
31717;BME280;18301;51.076;17.046;2023-01-30T02:13:04;99968.97;;;0.33;72.80
31717;BME280;18301;51.076;17.046;2023-01-30T02:18:05;99964.38;;;0.14;73.87
31717;BME280;18301;51.076;17.046;2023-01-30T02:23:32;99944.50;;;0.25;73.83
31717;BME280;18301;51.076;17.046;2023-01-30T02:45:40;99876.31;;;0.27;74.10
31717;BME280;18301;51.076;17.046;2023-01-30T02:50:54;99875.13;;;0.12;74.58
31717;BME280;18301;51.076;17.046;2023-01-30T02:55:57;99863.06;;;0.05;74.67
31717;BME280;18301;51.076;17.046;2023-01-30T03:01:07;99837.50;;;0.02;75.03
31717;BME280;18301;51.076;17.046;2023-01-30T03:11:37;99833.44;;;0.15;74.38
31717;BME280;18301;51.076;17.046;2023-01-30T03:16:45;99832.19;;;0.02;75.24
31717;BME280;18301;51.076;17.046;2023-01-30T03:21:48;99827.38;;;0.12;75.00
31717;BME280;18301;51.076;17.046;2023-01-30T03:27:16;99813.75;;;0.63;73.60
31717;BME280;18301;51.076;17.046;2023-01-30T03:32:18;99794.25;;;0.44;73.56
31717;BME280;18301;51.076;17.046;2023-01-30T03:37:19;99775.28;;;0.53;74.01
31717;BME280;18301;51.076;17.046;2023-01-30T03:42:20;99774.84;;;0.42;73.25
31717;BME280;18301;51.076;17.046;2023-01-30T03:47:22;99768.22;;;0.32;73.60
31717;BME280;18301;51.076;17.046;2023-01-30T03:52:23;99751.44;;;0.52;73.40
31717;BME280;18301;51.076;17.046;2023-01-30T03:57:25;99761.19;;;0.51;72.79
31717;BME280;18301;51.076;17.046;2023-01-30T04:02:26;99746.97;;;0.52;72.90
31717;BME280;18301;51.076;17.046;2023-01-30T04:07:28;99749.38;;;0.79;71.99
31717;BME280;18301;51.076;17.046;2023-01-30T04:12:30;99736.34;;;0.52;72.68
31717;BME280;18301;51.076;17.046;2023-01-30T04:17:31;99709.00;;;0.71;72.46
31717;BME280;18301;51.076;17.046;2023-01-30T04:22:33;99687.75;;;0.71;70.79
31717;BME280;18301;51.076;17.046;2023-01-30T04:27:34;99667.75;;;0.43;70.78
31717;BME280;18301;51.076;17.046;2023-01-30T04:32:36;99650.72;;;0.67;69.69
31717;BME280;18301;51.076;17.046;2023-01-30T04:37:37;99635.06;;;0.61;68.67
31717;BME280;18301;51.076;17.046;2023-01-30T04:42:39;99634.44;;;0.36;68.81
31717;BME280;18301;51.076;17.046;2023-01-30T04:47:40;99623.44;;;0.64;69.22
31717;BME280;18301;51.076;17.046;2023-01-30T04:52:42;99609.69;;;0.75;69.05
31717;BME280;18301;51.076;17.046;2023-01-30T04:57:43;99587.44;;;0.77;68.56
31717;BME280;18301;51.076;17.046;2023-01-30T05:02:45;99571.19;;;0.64;69.39
31717;BME280;18301;51.076;17.046;2023-01-30T05:07:46;99568.50;;;0.66;69.79
31717;BME280;18301;51.076;17.046;2023-01-30T05:12:48;99569.75;;;0.95;69.19
31717;BME280;18301;51.076;17.046;2023-01-30T05:17:49;99570.81;;;0.93;69.33
31717;BME280;18301;51.076;17.046;2023-01-30T05:22:51;99560.81;;;0.79;70.54
31717;BME280;18301;51.076;17.046;2023-01-30T05:27:52;99555.88;;;0.90;70.26
31717;BME280;18301;51.076;17.046;2023-01-30T05:32:57;99541.28;;;0.61;71.15
31717;BME280;18301;51.076;17.046;2023-01-30T05:37:58;99530.19;;;0.72;71.12
31717;BME280;18301;51.076;17.046;2023-01-30T05:42:59;99526.44;;;0.76;71.42
31717;BME280;18301;51.076;17.046;2023-01-30T05:48:02;99522.69;;;0.99;70.82
31717;BME280;18301;51.076;17.046;2023-01-30T05:53:03;99514.69;;;1.18;69.92
31717;BME280;18301;51.076;17.046;2023-01-30T05:58:04;99498.84;;;0.97;70.35
31717;BME280;18301;51.076;17.046;2023-01-30T06:03:06;99493.53;;;0.97;69.51
31717;BME280;18301;51.076;17.046;2023-01-30T06:08:07;99482.25;;;0.92;69.53
31717;BME280;18301;51.076;17.046;2023-01-30T06:13:09;99474.78;;;1.00;69.48
31717;BME280;18301;51.076;17.046;2023-01-30T06:18:13;99478.38;;;1.17;69.42
31717;BME280;18301;51.076;17.046;2023-01-30T06:23:15;99479.44;;;1.14;69.61
31717;BME280;18301;51.076;17.046;2023-01-30T06:28:18;99487.19;;;1.36;68.79
31717;BME280;18301;51.076;17.046;2023-01-30T06:33:19;99482.63;;;1.38;68.65
31717;BME280;18301;51.076;17.046;2023-01-30T06:38:21;99450.56;;;1.41;69.23
31717;BME280;18301;51.076;17.046;2023-01-30T06:43:22;99435.72;;;1.54;69.11
31717;BME280;18301;51.076;17.046;2023-01-30T06:48:24;99433.50;;;1.63;68.46
31717;BME280;18301;51.076;17.046;2023-01-30T06:53:25;99430.25;;;1.40;69.67
31717;BME280;18301;51.076;17.046;2023-01-30T06:58:30;99432.75;;;1.60;69.22
31717;BME280;18301;51.076;17.046;2023-01-30T07:03:32;99429.03;;;1.63;69.69
31717;BME280;18301;51.076;17.046;2023-01-30T07:08:33;99420.50;;;1.74;69.30
31717;BME280;18301;51.076;17.046;2023-01-30T07:13:35;99418.00;;;1.71;69.71
31717;BME280;18301;51.076;17.046;2023-01-30T07:18:36;99411.31;;;1.64;69.61
31717;BME280;18301;51.076;17.046;2023-01-30T07:23:37;99393.88;;;1.58;69.50
31717;BME280;18301;51.076;17.046;2023-01-30T07:28:39;99415.06;;;1.93;69.29
31717;BME280;18301;51.076;17.046;2023-01-30T07:33:40;99413.97;;;1.64;71.26
31717;BME280;18301;51.076;17.046;2023-01-30T07:38:42;99409.63;;;1.45;72.72
31717;BME280;18301;51.076;17.046;2023-01-30T07:43:43;99405.50;;;1.73;73.09
31717;BME280;18301;51.076;17.046;2023-01-30T07:48:45;99396.75;;;1.53;74.82
31717;BME280;18301;51.076;17.046;2023-01-30T07:53:48;99376.75;;;1.64;75.14
31717;BME280;18301;51.076;17.046;2023-01-30T07:58:53;99378.78;;;1.58;75.97
31717;BME280;18301;51.076;17.046;2023-01-30T08:03:55;99380.47;;;1.59;76.88
31717;BME280;18301;51.076;17.046;2023-01-30T08:08:56;99378.41;;;1.49;77.96
31717;BME280;18301;51.076;17.046;2023-01-30T08:13:58;99343.41;;;1.56;76.79
31717;BME280;18301;51.076;17.046;2023-01-30T08:18:59;99351.41;;;1.56;76.92
31717;BME280;18301;51.076;17.046;2023-01-30T08:24:01;99354.38;;;1.50;77.20
31717;BME280;18301;51.076;17.046;2023-01-30T08:29:02;99339.06;;;1.71;75.91
31717;BME280;18301;51.076;17.046;2023-01-30T08:34:04;99331.94;;;1.72;75.75
31717;BME280;18301;51.076;17.046;2023-01-30T08:39:05;99318.75;;;1.70;75.50
31717;BME280;18301;51.076;17.046;2023-01-30T08:44:06;99301.66;;;2.06;74.74
31717;BME280;18301;51.076;17.046;2023-01-30T08:49:09;99308.47;;;2.12;74.22
31717;BME280;18301;51.076;17.046;2023-01-30T08:54:11;99295.09;;;1.97;75.79
31717;BME280;18301;51.076;17.046;2023-01-30T08:59:12;99287.69;;;2.02;76.06
31717;BME280;18301;51.076;17.046;2023-01-30T09:04:14;99299.53;;;2.28;75.78
31717;BME280;18301;51.076;17.046;2023-01-30T09:09:15;99299.53;;;2.28;76.72
31717;BME280;18301;51.076;17.046;2023-01-30T09:14:17;99294.19;;;2.28;76.71
31717;BME280;18301;51.076;17.046;2023-01-30T09:19:24;99293.09;;;2.17;78.35
31717;BME280;18301;51.076;17.046;2023-01-30T09:24:26;99291.09;;;2.36;77.48
31717;BME280;18301;51.076;17.046;2023-01-30T09:29:28;99279.94;;;2.29;77.89
31717;BME280;18301;51.076;17.046;2023-01-30T09:34:29;99283.91;;;2.22;78.56
31717;BME280;18301;51.076;17.046;2023-01-30T09:39:31;99278.91;;;2.32;78.24
31717;BME280;18301;51.076;17.046;2023-01-30T09:55:26;99251.22;;;2.50;80.86
31717;BME280;18301;51.076;17.046;2023-01-30T10:00:35;99244.53;;;2.43;81.40
31717;BME280;18301;51.076;17.046;2023-01-30T10:05:45;99242.44;;;2.48;81.86
31717;BME280;18301;51.076;17.046;2023-01-30T10:16:16;99231.06;;;2.30;84.21
31717;BME280;18301;51.076;17.046;2023-01-30T10:21:29;99225.19;;;2.25;85.10
31717;BME280;18301;51.076;17.046;2023-01-30T10:26:32;99222.94;;;2.18;85.43
31717;BME280;18301;51.076;17.046;2023-01-30T10:31:44;99210.59;;;2.17;86.51
31717;BME280;18301;51.076;17.046;2023-01-30T10:36:56;99207.38;;;1.80;89.80
31717;BME280;18301;51.076;17.046;2023-01-30T10:42:13;99204.47;;;2.00;88.60
31717;BME280;18301;51.076;17.046;2023-01-30T10:47:35;99185.19;;;2.11;87.21
31717;BME280;18301;51.076;17.046;2023-01-30T10:59:09;99187.25;;;2.22;88.90
31717;BME280;18301;51.076;17.046;2023-01-30T11:03:52;99188.72;;;2.12;89.35
31717;BME280;18301;51.076;17.046;2023-01-30T11:08:56;99175.13;;;2.46;88.54
31717;BME280;18301;51.076;17.046;2023-01-30T11:19:04;99152.69;;;2.50;88.80
31717;BME280;18301;51.076;17.046;2023-01-30T11:24:28;99152.13;;;2.74;88.01
31717;BME280;18301;51.076;17.046;2023-01-30T11:29:32;99138.44;;;2.66;88.47
31717;BME280;18301;51.076;17.046;2023-01-30T11:34:35;99130.03;;;2.86;87.58
31717;BME280;18301;51.076;17.046;2023-01-30T11:39:36;99115.56;;;3.05;87.00
31717;BME280;18301;51.076;17.046;2023-01-30T11:44:39;99110.91;;;3.08;86.36
31717;BME280;18301;51.076;17.046;2023-01-30T11:49:45;99101.59;;;3.01;86.58
31717;BME280;18301;51.076;17.046;2023-01-30T11:55:19;99087.19;;;3.18;85.06
31717;BME280;18301;51.076;17.046;2023-01-30T12:00:23;99087.66;;;3.25;85.85
31717;BME280;18301;51.076;17.046;2023-01-30T12:05:38;99075.53;;;3.33;85.42
31717;BME280;18301;51.076;17.046;2023-01-30T12:10:45;99058.88;;;3.30;85.80
31717;BME280;18301;51.076;17.046;2023-01-30T12:15:49;99080.47;;;3.39;86.06
31717;BME280;18301;51.076;17.046;2023-01-30T12:21:11;99057.31;;;3.40;85.50
31717;BME280;18301;51.076;17.046;2023-01-30T12:26:20;99079.38;;;3.69;86.59
31717;BME280;18301;51.076;17.046;2023-01-30T12:32:03;99045.25;;;3.74;86.90
31717;BME280;18301;51.076;17.046;2023-01-30T12:37:32;99040.28;;;3.95;85.13
31717;BME280;18301;51.076;17.046;2023-01-30T12:48:31;99046.59;;;4.32;83.01
31717;BME280;18301;51.076;17.046;2023-01-30T12:53:57;99048.22;;;4.35;83.88
31717;BME280;18301;51.076;17.046;2023-01-30T13:09:37;99065.50;;;4.29;83.96
31717;BME280;18301;51.076;17.046;2023-01-30T13:25:15;99063.59;;;4.31;83.94
31717;BME280;18301;51.076;17.046;2023-01-30T13:30:21;99062.06;;;4.78;81.54
31717;BME280;18301;51.076;17.046;2023-01-30T13:35:33;99069.13;;;4.54;82.85
31717;BME280;18301;51.076;17.046;2023-01-30T13:40:39;99065.94;;;4.49;82.59
31717;BME280;18301;51.076;17.046;2023-01-30T13:45:45;99058.03;;;4.47;83.67
31717;BME280;18301;51.076;17.046;2023-01-30T13:56:11;99073.41;;;4.69;82.60
31717;BME280;18301;51.076;17.046;2023-01-30T14:07:31;99070.81;;;4.93;81.54
31717;BME280;18301;51.076;17.046;2023-01-30T14:12:45;99069.72;;;4.96;80.39
31717;BME280;18301;51.076;17.046;2023-01-30T14:23:00;99081.47;;;5.06;80.54
31717;BME280;18301;51.076;17.046;2023-01-30T14:38:23;99101.31;;;5.27;78.51
31717;BME280;18301;51.076;17.046;2023-01-30T14:43:35;99105.22;;;4.98;79.81
31717;BME280;18301;51.076;17.046;2023-01-30T14:48:44;99096.91;;;4.90;78.85
31717;BME280;18301;51.076;17.046;2023-01-30T15:04:18;99092.19;;;4.93;77.29
31717;BME280;18301;51.076;17.046;2023-01-30T15:09:23;99093.38;;;4.76;77.17
31717;BME280;18301;51.076;17.046;2023-01-30T15:14:35;99089.78;;;5.14;76.27
31717;BME280;18301;51.076;17.046;2023-01-30T15:20:19;99084.69;;;4.85;76.68
31717;BME280;18301;51.076;17.046;2023-01-30T15:25:51;99091.78;;;4.87;76.95
31717;BME280;18301;51.076;17.046;2023-01-30T15:31:03;99098.28;;;4.82;76.32
31717;BME280;18301;51.076;17.046;2023-01-30T15:36:37;99109.41;;;5.02;75.74
31717;BME280;18301;51.076;17.046;2023-01-30T15:41:39;99105.66;;;4.79;75.69
31717;BME280;18301;51.076;17.046;2023-01-30T15:46:51;99102.69;;;4.83;75.87
31717;BME280;18301;51.076;17.046;2023-01-30T15:52:00;99103.41;;;4.85;75.91
31717;BME280;18301;51.076;17.046;2023-01-30T15:57:02;99090.91;;;4.73;75.68
31717;BME280;18301;51.076;17.046;2023-01-30T16:02:13;99098.84;;;4.62;76.80
31717;BME280;18301;51.076;17.046;2023-01-30T16:07:24;99096.91;;;4.51;76.58
31717;BME280;18301;51.076;17.046;2023-01-30T16:12:28;99112.28;;;4.73;75.70
31717;BME280;18301;51.076;17.046;2023-01-30T16:17:30;99117.13;;;4.68;76.02
31717;BME280;18301;51.076;17.046;2023-01-30T16:22:33;99128.88;;;4.53;76.41
31717;BME280;18301;51.076;17.046;2023-01-30T16:27:37;99126.22;;;4.53;75.57
31717;BME280;18301;51.076;17.046;2023-01-30T16:32:39;99123.13;;;4.59;76.42
31717;BME280;18301;51.076;17.046;2023-01-30T16:37:41;99121.38;;;4.58;76.38
31717;BME280;18301;51.076;17.046;2023-01-30T16:43:12;99133.59;;;4.62;75.73
31717;BME280;18301;51.076;17.046;2023-01-30T16:53:25;99129.41;;;4.83;75.47
31717;BME280;18301;51.076;17.046;2023-01-30T16:58:30;99108.88;;;4.46;76.13
31717;BME280;18301;51.076;17.046;2023-01-30T17:03:37;99113.91;;;4.63;76.31
31717;BME280;18301;51.076;17.046;2023-01-30T17:08:46;99124.50;;;4.77;75.32
31717;BME280;18301;51.076;17.046;2023-01-30T17:19:14;99109.28;;;5.03;74.56
31717;BME280;18301;51.076;17.046;2023-01-30T17:24:18;99108.19;;;5.06;74.28
31717;BME280;18301;51.076;17.046;2023-01-30T17:29:20;99091.34;;;4.93;74.82
31717;BME280;18301;51.076;17.046;2023-01-30T17:34:34;99096.47;;;4.70;77.69
31717;BME280;18301;51.076;17.046;2023-01-30T17:39:41;99123.19;;;4.83;77.44
31717;BME280;18301;51.076;17.046;2023-01-30T17:44:42;99142.88;;;4.69;79.70
31717;BME280;18301;51.076;17.046;2023-01-30T17:49:43;99139.88;;;4.48;81.68
31717;BME280;18301;51.076;17.046;2023-01-30T17:54:45;99148.22;;;4.44;81.22
31717;BME280;18301;51.076;17.046;2023-01-30T17:59:46;99159.97;;;4.54;80.46
31717;BME280;18301;51.076;17.046;2023-01-30T18:04:48;99161.47;;;4.58;81.12
31717;BME280;18301;51.076;17.046;2023-01-30T18:09:49;99180.16;;;4.58;81.54
31717;BME280;18301;51.076;17.046;2023-01-30T18:14:51;99192.38;;;4.75;80.58
31717;BME280;18301;51.076;17.046;2023-01-30T18:19:54;99194.34;;;4.46;82.62
31717;BME280;18301;51.076;17.046;2023-01-30T18:24:56;99186.75;;;4.39;83.56
31717;BME280;18301;51.076;17.046;2023-01-30T18:29:58;99198.22;;;4.14;84.76
31717;BME280;18301;51.076;17.046;2023-01-30T18:35:00;99216.06;;;4.14;84.43
31717;BME280;18301;51.076;17.046;2023-01-30T18:40:01;99223.88;;;4.17;84.28
31717;BME280;18301;51.076;17.046;2023-01-30T18:45:03;99219.09;;;4.22;84.98
31717;BME280;18301;51.076;17.046;2023-01-30T18:50:05;99218.09;;;3.69;87.61
31717;BME280;18301;51.076;17.046;2023-01-30T18:55:07;99221.22;;;4.17;85.31
31717;BME280;18301;51.076;17.046;2023-01-30T19:00:09;99231.53;;;3.82;87.27
31717;BME280;18301;51.076;17.046;2023-01-30T19:05:10;99243.16;;;3.81;87.33
31717;BME280;18301;51.076;17.046;2023-01-30T19:10:12;99248.91;;;4.02;86.53
31717;BME280;18301;51.076;17.046;2023-01-30T19:15:17;99258.09;;;3.98;86.42
31717;BME280;18301;51.076;17.046;2023-01-30T19:20:19;99263.22;;;4.01;87.04
31717;BME280;18301;51.076;17.046;2023-01-30T19:25:24;99271.16;;;4.15;85.76
31717;BME280;18301;51.076;17.046;2023-01-30T19:30:26;99272.50;;;4.22;86.14
31717;BME280;18301;51.076;17.046;2023-01-30T19:35:29;99268.28;;;4.18;86.75
31717;BME280;18301;51.076;17.046;2023-01-30T19:40:30;99272.28;;;4.25;86.19
31717;BME280;18301;51.076;17.046;2023-01-30T19:45:32;99264.53;;;4.08;86.16
31717;BME280;18301;51.076;17.046;2023-01-30T19:50:35;99273.63;;;4.18;86.33
31717;BME280;18301;51.076;17.046;2023-01-30T19:55:36;99288.84;;;4.30;84.89
31717;BME280;18301;51.076;17.046;2023-01-30T20:00:38;99286.94;;;4.59;84.75
31717;BME280;18301;51.076;17.046;2023-01-30T20:05:39;99288.19;;;4.54;85.03
31717;BME280;18301;51.076;17.046;2023-01-30T20:10:41;99295.94;;;4.31;85.95
31717;BME280;18301;51.076;17.046;2023-01-30T20:15:42;99299.09;;;4.24;86.50
31717;BME280;18301;51.076;17.046;2023-01-30T20:20:44;99292.59;;;3.86;88.56
31717;BME280;18301;51.076;17.046;2023-01-30T20:25:45;99304.94;;;4.16;86.55
31717;BME280;18301;51.076;17.046;2023-01-30T20:30:48;99300.53;;;3.88;88.98
31717;BME280;18301;51.076;17.046;2023-01-30T20:35:50;99310.78;;;3.94;88.28
31717;BME280;18301;51.076;17.046;2023-01-30T20:40:59;99318.16;;;3.76;89.39
31717;BME280;18301;51.076;17.046;2023-01-30T20:46:04;99324.28;;;3.64;90.72
31717;BME280;18301;51.076;17.046;2023-01-30T20:51:08;99336.25;;;3.71;90.44
31717;BME280;18301;51.076;17.046;2023-01-30T20:56:10;99348.94;;;3.67;90.97
31717;BME280;18301;51.076;17.046;2023-01-30T21:01:17;99343.56;;;4.10;88.84
31717;BME280;18301;51.076;17.046;2023-01-30T21:06:22;99337.56;;;4.07;89.38
31717;BME280;18301;51.076;17.046;2023-01-30T21:11:43;99348.75;;;3.85;90.91
31717;BME280;18301;51.076;17.046;2023-01-30T21:16:46;99357.22;;;3.77;91.79
31717;BME280;18301;51.076;17.046;2023-01-30T21:21:53;99364.41;;;4.32;89.31
31717;BME280;18301;51.076;17.046;2023-01-30T21:26:56;99374.44;;;4.00;90.93
31717;BME280;18301;51.076;17.046;2023-01-30T21:31:57;99376.00;;;4.46;88.51
31717;BME280;18301;51.076;17.046;2023-01-30T21:36:59;99385.09;;;4.29;88.97
31717;BME280;18301;51.076;17.046;2023-01-30T21:42:19;99391.00;;;4.34;88.76
31717;BME280;18301;51.076;17.046;2023-01-30T21:47:40;99411.22;;;4.38;87.79
31717;BME280;18301;51.076;17.046;2023-01-30T21:52:42;99410.00;;;4.15;88.78
31717;BME280;18301;51.076;17.046;2023-01-30T21:57:43;99422.22;;;4.19;89.10
31717;BME280;18301;51.076;17.046;2023-01-30T22:02:48;99441.84;;;4.18;88.44
31717;BME280;18301;51.076;17.046;2023-01-30T22:07:50;99470.84;;;4.53;86.31
31717;BME280;18301;51.076;17.046;2023-01-30T22:12:51;99468.94;;;4.41;86.89
31717;BME280;18301;51.076;17.046;2023-01-30T22:17:53;99474.06;;;4.58;86.13
31717;BME280;18301;51.076;17.046;2023-01-30T22:22:54;99472.81;;;4.64;85.13
31717;BME280;18301;51.076;17.046;2023-01-30T22:27:56;99488.56;;;4.39;84.98
31717;BME280;18301;51.076;17.046;2023-01-30T22:32:57;99493.13;;;4.66;84.70
31717;BME280;18301;51.076;17.046;2023-01-30T22:37:59;99496.41;;;4.43;85.10
31717;BME280;18301;51.076;17.046;2023-01-30T22:43:00;99505.84;;;4.05;85.57
31717;BME280;18301;51.076;17.046;2023-01-30T22:48:01;99514.72;;;4.49;83.03
31717;BME280;18301;51.076;17.046;2023-01-30T22:53:03;99510.13;;;4.36;83.37
31717;BME280;18301;51.076;17.046;2023-01-30T22:58:04;99524.66;;;4.32;83.62
31717;BME280;18301;51.076;17.046;2023-01-30T23:03:06;99523.00;;;4.73;82.08
31717;BME280;18301;51.076;17.046;2023-01-30T23:08:07;99526.72;;;4.27;84.48
31717;BME280;18301;51.076;17.046;2023-01-30T23:13:09;99521.78;;;4.21;85.37
31717;BME280;18301;51.076;17.046;2023-01-30T23:18:15;99533.50;;;4.19;86.05
31717;BME280;18301;51.076;17.046;2023-01-30T23:23:35;99548.44;;;3.92;87.91
31717;BME280;18301;51.076;17.046;2023-01-30T23:28:37;99538.00;;;4.47;85.28
31717;BME280;18301;51.076;17.046;2023-01-30T23:33:39;99531.50;;;4.36;85.84
31717;BME280;18301;51.076;17.046;2023-01-30T23:38:41;99552.88;;;4.36;85.47
31717;BME280;18301;51.076;17.046;2023-01-30T23:43:43;99545.91;;;4.34;85.42
31717;BME280;18301;51.076;17.046;2023-01-30T23:48:47;99569.00;;;4.49;84.07
31717;BME280;18301;51.076;17.046;2023-01-30T23:53:50;99564.31;;;4.24;84.15
31717;BME280;18301;51.076;17.046;2023-01-30T23:58:52;99552.31;;;4.46;83.31
